Observations

81.0 °F / 27.2 °C
NE at 9 MPH
92%
78.4°F / 25.8 °C
29.88" (1011 mb)
10 mile(s)
clear
2019.08.24 1120 UTC

Observations

Surface


Raw METARs

2019/08/24 11:20
PKWA 241120Z AUTO 05008KT 10SM CLR 27/26 A2988 RMK AO2 T02720258

Translated METAR

Station name not available
Aug 24, 2019 - 07:20 AM EDT / 2019.08.24 1120 UTC
Wind: from the NE (050 degrees) at 9 MPH (8 KT):0
Visibility: 10 mile(s):0
Sky conditions: clear
Temperature: 81.0 F (27.2 C)
Dew Point: 78.4 F (25.8 C)
Relative Humidity: 92%
Pressure (altimeter): 29.88 in. Hg (1011 hPa)
ob: PKWA 241120Z AUTO 05008KT 10SM CLR 27/26 A2988 RMK AO2 T02720258
cycle: 11



Upper Air


Latest Skew-T

Skew T Diagram

Latest Data File